createdAt,value
2024-04-13T00:00:38.283Z,5.30
2024-04-13T00:03:05.938Z,4.70
2024-04-13T00:05:33.265Z,5.00
2024-04-13T00:08:01.023Z,4.83
2024-04-13T00:10:28.700Z,5.40
2024-04-13T00:12:56.325Z,5.17
2024-04-13T00:15:23.734Z,6.10
2024-04-13T00:17:51.112Z,5.50
2024-04-13T00:20:18.506Z,5.70
2024-04-13T00:22:46.216Z,4.93
2024-04-13T00:25:15.376Z,4.80
2024-04-13T00:27:42.751Z,5.00
2024-04-13T00:30:10.993Z,5.33
2024-04-13T00:32:38.442Z,5.03
2024-04-13T00:35:06.910Z,5.27
2024-04-13T00:37:34.535Z,5.50
2024-04-13T00:40:01.936Z,4.97
2024-04-13T00:42:30.031Z,5.53
2024-04-13T00:45:05.666Z,5.37
2024-04-13T00:47:36.428Z,6.00
2024-04-13T00:50:12.897Z,5.00
2024-04-13T00:52:44.514Z,5.97
2024-04-13T00:55:12.446Z,5.90
2024-04-13T00:57:41.098Z,5.63
2024-04-13T01:00:14.378Z,5.30
2024-04-13T01:02:44.874Z,5.77
2024-04-13T01:05:17.021Z,5.90
2024-04-13T01:07:47.505Z,6.13
2024-04-13T01:10:18.416Z,5.70
2024-04-13T01:12:46.127Z,5.70
2024-04-13T01:15:13.526Z,5.83
2024-04-13T01:17:41.110Z,5.80
2024-04-13T01:20:09.824Z,6.53
2024-04-13T01:22:46.887Z,6.47
2024-04-13T01:25:16.557Z,6.70
2024-04-13T01:27:43.891Z,6.53
2024-04-13T01:30:15.460Z,6.53
2024-04-13T01:32:43.183Z,6.73
2024-04-13T01:35:11.724Z,6.13
2024-04-13T01:37:43.188Z,6.53
2024-04-13T01:40:11.736Z,6.87
2024-04-13T01:42:42.481Z,6.07
2024-04-13T01:45:13.237Z,6.13
2024-04-13T01:47:41.229Z,6.23
2024-04-13T01:50:09.274Z,6.43
2024-04-13T01:52:36.967Z,6.03
2024-04-13T01:55:05.835Z,5.63
2024-04-13T01:57:34.110Z,5.67
2024-04-13T02:00:01.569Z,5.83
2024-04-13T02:02:32.305Z,6.43
2024-04-13T02:04:59.664Z,6.77
2024-04-13T02:07:26.974Z,6.40
2024-04-13T02:09:54.337Z,7.10
2024-04-13T02:12:23.005Z,6.30
2024-04-13T02:14:50.376Z,6.80
2024-04-13T02:17:18.135Z,6.40
2024-04-13T02:19:47.229Z,6.10
2024-04-13T02:22:17.017Z,7.27
2024-04-13T02:24:47.837Z,7.33
2024-04-13T02:27:15.287Z,6.90
2024-04-13T02:29:44.940Z,6.07
2024-04-13T02:32:12.772Z,6.50
2024-04-13T02:34:41.339Z,7.07
2024-04-13T02:37:08.645Z,6.60
2024-04-13T02:39:36.101Z,6.93
2024-04-13T02:42:03.954Z,6.27
2024-04-13T02:44:31.209Z,6.80
2024-04-13T02:46:58.489Z,6.73
2024-04-13T02:49:25.904Z,7.37
2024-04-13T02:51:53.228Z,7.17
2024-04-13T02:54:20.579Z,6.97
2024-04-13T02:56:47.894Z,6.53
2024-04-13T02:59:15.311Z,7.13
2024-04-13T03:01:42.543Z,6.90
2024-04-13T03:04:10.040Z,6.50
2024-04-13T03:06:37.398Z,6.47
2024-04-13T03:09:06.178Z,6.43
2024-04-13T03:11:34.258Z,7.03
2024-04-13T03:14:01.637Z,6.57
2024-04-13T03:16:28.944Z,6.77
2024-04-13T03:18:56.290Z,7.07
2024-04-13T03:21:23.706Z,6.30
2024-04-13T03:23:51.259Z,6.90
2024-04-13T03:26:18.698Z,6.33
2024-04-13T03:28:46.032Z,7.10
2024-04-13T03:31:13.510Z,6.83
2024-04-13T03:33:40.863Z,6.83
2024-04-13T03:36:08.595Z,6.77
2024-04-13T03:38:36.043Z,7.23
2024-04-13T03:41:07.781Z,6.50
2024-04-13T03:43:37.591Z,6.63
2024-04-13T03:46:06.537Z,7.40
2024-04-13T03:48:34.524Z,6.83
2024-04-13T03:51:03.054Z,5.90
2024-04-13T03:53:31.116Z,6.97
2024-04-13T03:55:58.578Z,6.93
2024-04-13T03:58:25.991Z,6.60
2024-04-13T04:00:53.554Z,6.77
2024-04-13T04:03:21.199Z,7.57
2024-04-13T04:05:52.411Z,6.57
2024-04-13T04:08:20.187Z,7.27
2024-04-13T04:10:47.997Z,7.67
2024-04-13T04:13:15.386Z,7.00
2024-04-13T04:15:43.178Z,6.73
2024-04-13T04:18:11.105Z,6.93
2024-04-13T04:20:38.538Z,7.03
2024-04-13T04:23:06.914Z,7.33
2024-04-13T04:25:34.307Z,6.97
2024-04-13T04:28:01.566Z,7.57
2024-04-13T04:30:28.958Z,7.33
2024-04-13T04:32:56.335Z,7.27
2024-04-13T04:35:23.706Z,7.30
2024-04-13T04:37:51.003Z,7.03
2024-04-13T04:40:18.361Z,7.40
2024-04-13T04:42:45.880Z,6.83
2024-04-13T04:45:13.155Z,7.03
2024-04-13T04:47:40.478Z,7.70
2024-04-13T04:50:07.962Z,7.10
2024-04-13T04:52:35.266Z,7.37
2024-04-13T04:55:03.181Z,7.17
2024-04-13T04:57:31.048Z,7.33
2024-04-13T04:59:58.462Z,7.33
2024-04-13T05:02:26.138Z,7.00
2024-04-13T05:04:53.679Z,7.17
2024-04-13T05:07:23.596Z,6.73
2024-04-13T05:09:50.972Z,6.87
2024-04-13T05:12:18.319Z,7.57
2024-04-13T05:14:45.691Z,6.70
2024-04-13T05:17:14.897Z,6.90
2024-04-13T05:19:42.724Z,6.53
2024-04-13T05:22:10.333Z,7.07
2024-04-13T05:24:38.976Z,7.30
2024-04-13T05:27:08.483Z,7.50
2024-04-13T05:29:36.826Z,6.63
2024-04-13T05:32:07.547Z,6.93
2024-04-13T05:34:34.905Z,6.60
2024-04-13T05:37:02.312Z,7.17
2024-04-13T05:39:30.911Z,6.70
2024-04-13T05:41:58.341Z,6.53
2024-04-13T05:44:25.613Z,6.63
2024-04-13T05:46:53.219Z,7.00
2024-04-13T05:49:20.620Z,6.20
2024-04-13T05:51:50.041Z,6.70
2024-04-13T05:54:17.664Z,6.27
2024-04-13T05:56:45.048Z,6.17
2024-04-13T05:59:12.535Z,6.87
2024-04-13T06:01:40.003Z,6.53
2024-04-13T06:04:07.635Z,6.70
2024-04-13T06:06:35.026Z,6.50
2024-04-13T06:09:02.390Z,6.27
2024-04-13T06:11:29.751Z,5.97
2024-04-13T06:13:57.050Z,6.33
2024-04-13T06:16:24.463Z,6.53
2024-04-13T06:18:52.443Z,6.10
2024-04-13T06:21:19.949Z,5.93
2024-04-13T06:23:47.390Z,6.77
2024-04-13T06:26:14.775Z,5.77
2024-04-13T06:28:42.184Z,5.67
2024-04-13T06:31:09.625Z,5.63
2024-04-13T06:33:38.203Z,5.77
2024-04-13T06:36:06.100Z,5.37
2024-04-13T06:38:33.428Z,5.30
2024-04-13T06:41:01.619Z,5.80
2024-04-13T06:43:30.569Z,5.43
2024-04-13T06:45:58.570Z,5.03
2024-04-13T06:48:26.495Z,5.07
2024-04-13T06:50:54.429Z,5.80
2024-04-13T06:53:22.085Z,5.25
2024-04-13T06:55:49.680Z,5.22
2024-04-13T06:58:17.167Z,5.13
2024-04-13T07:00:44.586Z,5.03
2024-04-13T07:03:12.914Z,5.20
2024-04-13T07:05:40.339Z,5.47
2024-04-13T07:08:08.585Z,5.47
2024-04-13T07:10:36.456Z,5.60
2024-04-13T07:13:04.681Z,5.07
2024-04-13T07:15:32.132Z,5.32
2024-04-13T07:17:59.612Z,4.63
2024-04-13T07:20:27.043Z,5.10
2024-04-13T07:22:54.432Z,4.97
2024-04-13T07:25:22.107Z,4.65
2024-04-13T07:27:49.705Z,5.10
2024-04-13T07:30:17.220Z,5.15
2024-04-13T07:32:44.819Z,5.07
2024-04-13T07:35:12.253Z,4.50
2024-04-13T07:37:39.768Z,4.57
2024-04-13T07:40:07.847Z,4.70
2024-04-13T07:42:35.615Z,4.28
2024-04-13T07:45:03.003Z,4.53
2024-04-13T07:47:30.492Z,4.38
2024-04-13T07:49:58.612Z,4.35
2024-04-13T07:52:26.004Z,3.50
2024-04-13T07:54:53.653Z,3.67
2024-04-13T07:57:21.502Z,3.33
2024-04-13T07:59:49.103Z,3.60
2024-04-13T08:02:16.654Z,3.42
2024-04-13T08:04:44.820Z,3.55
2024-04-13T08:07:12.220Z,3.42
2024-04-13T08:09:43.096Z,3.20
2024-04-13T08:12:11.851Z,2.92
2024-04-13T08:14:40.090Z,3.10
2024-04-13T08:17:08.668Z,3.00
2024-04-13T08:19:36.284Z,2.78
2024-04-13T08:22:04.216Z,2.70
2024-04-13T08:24:31.840Z,2.80
2024-04-13T08:26:59.321Z,2.85
2024-04-13T08:29:26.762Z,3.03
2024-04-13T08:31:54.136Z,2.30
2024-04-13T08:34:21.480Z,2.47
2024-04-13T08:36:48.974Z,2.30
2024-04-13T08:39:17.222Z,2.40
2024-04-13T08:42:06.814Z,2.00
2024-04-13T08:44:35.549Z,2.20
2024-04-13T08:47:03.680Z,2.00
2024-04-13T08:49:41.444Z,2.30
2024-04-13T08:52:10.084Z,2.40
2024-04-13T08:54:38.696Z,2.15
2024-04-13T08:57:11.830Z,2.10
2024-04-13T08:59:41.824Z,2.15
2024-04-13T09:02:15.696Z,2.53
2024-04-13T09:04:43.369Z,2.38
2024-04-13T09:07:10.808Z,2.35
2024-04-13T09:09:41.272Z,2.20
2024-04-13T09:12:09.041Z,2.10
2024-04-13T09:14:36.435Z,2.10
2024-04-13T09:17:04.126Z,2.42
2024-04-13T09:19:31.758Z,2.38
2024-04-13T09:22:01.708Z,2.70
2024-04-13T09:24:43.859Z,2.00
2024-04-13T09:27:30.537Z,2.20
2024-04-13T09:30:12.012Z,2.03
2024-04-13T09:32:40.187Z,2.30
2024-04-13T09:35:15.176Z,2.15
2024-04-13T09:37:43.351Z,2.30
2024-04-13T09:40:13.303Z,2.58
2024-04-13T09:42:41.075Z,3.05
2024-04-13T09:45:11.650Z,2.17
2024-04-13T09:47:39.785Z,2.58
2024-04-13T09:50:07.911Z,2.55
2024-04-13T09:52:37.328Z,2.40
2024-04-13T09:55:05.866Z,2.17
2024-04-13T09:57:34.972Z,2.10
2024-04-13T10:00:08.418Z,2.03
2024-04-13T10:02:37.000Z,1.98
2024-04-13T10:05:04.782Z,2.28
2024-04-13T10:07:33.930Z,2.10
2024-04-13T10:10:05.010Z,1.88
2024-04-13T10:12:40.633Z,2.40
2024-04-13T10:15:10.565Z,1.95
2024-04-13T10:17:40.968Z,2.13
2024-04-13T10:20:09.098Z,1.80
2024-04-13T10:22:39.086Z,1.90
2024-04-13T10:25:10.290Z,2.00
2024-04-13T10:27:39.469Z,1.73
2024-04-13T10:30:08.515Z,1.75
2024-04-13T10:32:36.045Z,2.05
2024-04-13T10:35:10.952Z,1.63
2024-04-13T10:37:38.658Z,2.20
2024-04-13T10:40:07.734Z,2.15
2024-04-13T10:42:40.070Z,2.60
2024-04-13T10:45:21.216Z,2.50
2024-04-13T10:47:49.386Z,1.95
2024-04-13T10:50:18.762Z,2.53
2024-04-13T10:52:47.129Z,2.08
2024-04-13T10:55:22.838Z,2.30
2024-04-13T10:57:51.907Z,2.50
2024-04-13T11:00:20.550Z,2.78
2024-04-13T11:02:50.427Z,2.65
2024-04-13T11:05:21.795Z,2.40
2024-04-13T11:07:52.734Z,2.30
2024-04-13T11:10:23.827Z,2.10
2024-04-13T11:12:51.791Z,2.42
2024-04-13T11:15:19.728Z,2.30
2024-04-13T11:17:49.276Z,2.72
2024-04-13T11:20:16.921Z,2.50
2024-04-13T11:22:45.179Z,2.63
2024-04-13T11:25:16.207Z,2.60
2024-04-13T11:27:45.831Z,2.10
2024-04-13T11:30:14.132Z,2.50
2024-04-13T11:32:42.393Z,2.03
2024-04-13T11:35:19.154Z,2.03
2024-04-13T11:37:57.115Z,2.03
2024-04-13T11:40:24.655Z,2.53
2024-04-13T11:42:54.240Z,2.13
2024-04-13T11:45:23.673Z,2.30
2024-04-13T11:47:51.875Z,2.30
2024-04-13T11:50:20.884Z,2.45
2024-04-13T11:52:49.675Z,2.30
2024-04-13T11:55:24.616Z,2.15
2024-04-13T11:57:52.199Z,2.25
2024-04-13T12:00:20.731Z,2.35
2024-04-13T12:02:49.143Z,2.42
2024-04-13T12:05:17.486Z,2.58
2024-04-13T12:07:45.771Z,2.47
2024-04-13T12:10:13.903Z,2.05
2024-04-13T12:12:41.478Z,2.40
2024-04-13T12:15:09.481Z,1.83
2024-04-13T12:17:37.461Z,2.00
2024-04-13T12:20:07.270Z,1.58
2024-04-13T12:22:34.886Z,1.77
2024-04-13T12:25:02.482Z,2.08
2024-04-13T12:27:30.098Z,1.80
2024-04-13T12:30:00.365Z,2.30
2024-04-13T12:32:28.623Z,1.95
2024-04-13T12:34:56.290Z,1.90
2024-04-13T12:37:23.727Z,1.92
2024-04-13T12:39:51.372Z,1.83
2024-04-13T12:42:20.854Z,1.63
2024-04-13T12:44:48.885Z,1.70
2024-04-13T12:47:18.205Z,1.40
2024-04-13T12:49:45.791Z,1.50
2024-04-13T12:52:14.142Z,1.75
2024-04-13T12:54:43.675Z,2.15
2024-04-13T12:57:11.964Z,1.60
2024-04-13T12:59:39.643Z,1.60
2024-04-13T13:02:07.956Z,1.92
2024-04-13T13:04:35.621Z,1.80
2024-04-13T13:07:04.169Z,1.52
2024-04-13T13:09:31.629Z,1.70
2024-04-13T13:11:59.228Z,1.90
2024-04-13T13:14:26.778Z,1.70
2024-04-13T13:16:54.243Z,2.17
2024-04-13T13:19:22.498Z,1.27
2024-04-13T13:21:49.973Z,1.50
2024-04-13T13:24:17.556Z,1.40
2024-04-13T13:26:45.195Z,1.20
2024-04-13T13:29:12.641Z,2.30
2024-04-13T13:31:40.090Z,2.85
2024-04-13T13:34:08.368Z,1.20
2024-04-13T13:36:36.540Z,1.35
2024-04-13T13:39:04.323Z,1.20
2024-04-13T13:41:32.736Z,1.08
2024-04-13T13:44:00.708Z,1.20
2024-04-13T13:46:28.888Z,1.27
2024-04-13T13:48:57.802Z,1.10
2024-04-13T13:51:26.018Z,1.00
2024-04-13T13:53:53.746Z,1.23
2024-04-13T13:56:21.248Z,1.10
2024-04-13T13:58:48.740Z,0.93
2024-04-13T14:01:16.412Z,1.00
2024-04-13T14:03:45.278Z,1.20
2024-04-13T14:06:12.823Z,0.90
2024-04-13T14:08:40.412Z,0.93
2024-04-13T14:11:08.255Z,1.00
2024-04-13T14:13:35.954Z,1.10
2024-04-13T14:16:03.979Z,0.80
2024-04-13T14:18:31.486Z,1.20
2024-04-13T14:21:01.364Z,0.82
2024-04-13T14:23:30.509Z,1.05
2024-04-13T14:25:57.947Z,1.05
2024-04-13T14:28:25.436Z,1.00
2024-04-13T14:30:52.877Z,1.33
2024-04-13T14:33:20.381Z,1.10
2024-04-13T14:35:50.241Z,1.08
2024-04-13T14:38:17.671Z,1.10
2024-04-13T14:40:45.131Z,1.33
2024-04-13T14:43:12.648Z,1.00
2024-04-13T14:45:40.273Z,1.08
2024-04-13T14:48:08.332Z,1.10
2024-04-13T14:50:36.044Z,1.27
2024-04-13T14:53:03.617Z,1.20
2024-04-13T14:55:31.175Z,1.38
2024-04-13T14:57:58.651Z,1.05
2024-04-13T15:00:26.412Z,1.10
2024-04-13T15:02:54.851Z,1.40
2024-04-13T15:05:22.304Z,1.25
2024-04-13T15:07:49.784Z,1.20
2024-04-13T15:10:17.262Z,1.33
2024-04-13T15:12:44.663Z,1.33
2024-04-13T15:15:13.416Z,0.98
2024-04-13T15:17:40.860Z,0.98
2024-04-13T15:20:09.190Z,1.25
2024-04-13T15:22:36.741Z,0.90
2024-04-13T15:25:04.401Z,1.10
2024-04-13T15:27:31.987Z,0.80
2024-04-13T15:30:00.718Z,1.10
2024-04-13T15:32:28.304Z,1.10
2024-04-13T15:35:00.508Z,0.90
2024-04-13T15:37:31.388Z,1.08
2024-04-13T15:39:59.294Z,0.90
2024-04-13T15:42:27.736Z,0.90
2024-04-13T15:44:56.027Z,0.88
2024-04-13T15:47:23.581Z,1.10
2024-04-13T15:49:51.123Z,1.02
2024-04-13T15:52:18.667Z,0.98
2024-04-13T15:54:49.495Z,1.10
2024-04-13T15:57:17.304Z,1.27
2024-04-13T15:59:45.889Z,1.33
2024-04-13T16:02:14.436Z,1.00
2024-04-13T16:04:42.907Z,1.30
2024-04-13T16:07:10.466Z,0.98
2024-04-13T16:09:38.218Z,0.93
2024-04-13T16:12:06.167Z,0.90
2024-04-13T16:14:33.631Z,0.80
2024-04-13T16:17:01.826Z,1.00
2024-04-13T16:19:33.299Z,1.15
2024-04-13T16:22:06.556Z,1.20
2024-04-13T16:24:34.815Z,0.93
2024-04-13T16:27:03.729Z,0.98
2024-04-13T16:29:32.591Z,0.93
2024-04-13T16:32:00.190Z,0.90
2024-04-13T16:34:27.757Z,1.02
2024-04-13T16:36:58.973Z,1.10
2024-04-13T16:39:29.121Z,1.10
2024-04-13T16:41:56.760Z,1.00
2024-04-13T16:44:25.228Z,1.08
2024-04-13T16:46:52.990Z,1.10
2024-04-13T16:49:23.733Z,1.00
2024-04-13T16:51:53.683Z,1.13
2024-04-13T16:54:22.721Z,1.02
2024-04-13T16:56:52.516Z,1.00
2024-04-13T16:59:20.604Z,1.25
2024-04-13T17:01:48.683Z,1.10
2024-04-13T17:04:16.217Z,1.00
2024-04-13T17:06:44.015Z,1.10
2024-04-13T17:09:11.795Z,1.15
2024-04-13T17:11:39.415Z,1.30
2024-04-13T17:14:06.807Z,1.20
2024-04-13T17:16:34.239Z,1.13
2024-04-13T17:19:01.755Z,1.00
2024-04-13T17:21:29.357Z,1.00
2024-04-13T17:23:56.776Z,1.20
2024-04-13T17:26:24.789Z,1.42
2024-04-13T17:28:52.330Z,1.40
2024-04-13T17:31:19.750Z,1.17
2024-04-13T17:33:47.261Z,1.23
2024-04-13T17:36:16.242Z,1.20
2024-04-13T17:38:46.781Z,1.30
2024-04-13T17:41:14.766Z,1.20
2024-04-13T17:43:42.575Z,1.40
2024-04-13T17:46:10.222Z,1.25
2024-04-13T17:48:37.995Z,1.48
2024-04-13T17:51:05.928Z,1.25
2024-04-13T17:53:33.387Z,1.10
2024-04-13T17:56:01.155Z,1.30
2024-04-13T17:58:28.779Z,1.33
2024-04-13T18:00:56.273Z,1.42
2024-04-13T18:03:24.636Z,1.40
2024-04-13T18:05:52.412Z,1.50
2024-04-13T18:08:20.146Z,1.40
2024-04-13T18:10:48.174Z,1.50
2024-04-13T18:13:15.885Z,1.23
2024-04-13T18:15:43.545Z,1.50
2024-04-13T18:18:11.158Z,1.52
2024-04-13T18:20:38.727Z,2.08
2024-04-13T18:23:07.143Z,2.00
2024-04-13T18:26:37.627Z,2.28
2024-04-13T18:29:05.113Z,2.33
2024-04-13T18:31:33.301Z,2.13
2024-04-13T18:34:04.742Z,1.98
2024-04-13T18:36:33.951Z,1.93
2024-04-13T18:39:01.418Z,2.00
2024-04-13T18:41:28.970Z,1.90
2024-04-13T18:43:56.885Z,1.90
2024-04-13T18:46:24.645Z,1.90
2024-04-13T18:48:52.856Z,2.00
2024-04-13T18:51:20.631Z,2.00
2024-04-13T18:53:48.052Z,1.87
2024-04-13T18:56:15.419Z,2.00
2024-04-13T18:58:43.061Z,2.20
2024-04-13T19:01:14.325Z,2.07
2024-04-13T19:03:43.316Z,1.90
2024-04-13T19:06:12.388Z,1.90
2024-04-13T19:08:39.811Z,2.20
2024-04-13T19:11:07.593Z,2.00
2024-04-13T19:13:37.829Z,2.00
2024-04-13T19:16:10.166Z,2.10
2024-04-13T19:18:40.781Z,2.00
2024-04-13T19:21:10.679Z,1.80
2024-04-13T19:23:45.560Z,2.43
2024-04-13T19:26:13.366Z,1.67
2024-04-13T19:28:42.735Z,1.80
2024-04-13T19:31:10.300Z,2.07
2024-04-13T19:33:37.788Z,1.80
2024-04-13T19:36:05.714Z,2.20
2024-04-13T19:38:33.134Z,1.90
2024-04-13T19:41:00.642Z,2.17
2024-04-13T19:43:28.075Z,2.17
2024-04-13T19:45:55.803Z,1.63
2024-04-13T19:48:23.320Z,1.87
2024-04-13T19:50:50.892Z,1.83
2024-04-13T19:53:18.390Z,2.10
2024-04-13T19:55:45.903Z,2.20
2024-04-13T19:58:13.330Z,2.33
2024-04-13T20:00:41.204Z,2.30
2024-04-13T20:03:08.793Z,2.27
2024-04-13T20:05:36.982Z,2.30
2024-04-13T20:08:04.713Z,2.43
2024-04-13T20:10:32.381Z,2.40
2024-04-13T20:13:00.054Z,2.70
2024-04-13T20:15:47.994Z,2.60
2024-04-13T20:18:34.281Z,2.90
2024-04-13T20:21:01.839Z,2.37
2024-04-13T20:23:29.322Z,2.43
2024-04-13T20:25:56.792Z,2.87
2024-04-13T20:28:24.339Z,2.40
2024-04-13T20:30:51.952Z,2.30
2024-04-13T20:33:19.595Z,3.00
2024-04-13T20:35:47.722Z,2.50
2024-04-13T20:38:15.515Z,2.33
2024-04-13T20:40:43.363Z,2.63
2024-04-13T20:43:11.205Z,2.30
2024-04-13T20:45:38.906Z,2.23
2024-04-13T20:48:06.863Z,2.40
2024-04-13T20:50:36.882Z,2.30
2024-04-13T20:53:05.546Z,2.67
2024-04-13T20:55:33.051Z,2.80
2024-04-13T20:58:00.706Z,2.87
2024-04-13T21:00:28.413Z,2.90
2024-04-13T21:02:55.944Z,2.60
2024-04-13T21:05:23.636Z,2.60
2024-04-13T21:07:51.055Z,3.10
2024-04-13T21:10:18.687Z,2.77
2024-04-13T21:12:46.577Z,2.63
2024-04-13T21:15:14.131Z,2.40
2024-04-13T21:17:41.782Z,2.70
2024-04-13T21:20:09.500Z,2.80
2024-04-13T21:22:37.056Z,2.60
2024-04-13T21:25:04.726Z,3.00
2024-04-13T21:27:34.062Z,2.90
2024-04-13T21:30:01.567Z,3.03
2024-04-13T21:32:29.256Z,3.10
2024-04-13T21:34:56.752Z,2.80
2024-04-13T21:37:24.466Z,2.80
2024-04-13T21:39:51.942Z,2.50
2024-04-13T21:42:20.251Z,2.80
2024-04-13T21:44:48.630Z,2.63
2024-04-13T21:47:16.072Z,2.73
2024-04-13T21:49:43.537Z,2.53
2024-04-13T21:52:11.094Z,2.73
2024-04-13T21:54:38.678Z,2.70
2024-04-13T21:57:09.384Z,2.93
2024-04-13T21:59:39.067Z,2.93
2024-04-13T22:02:06.492Z,2.67
2024-04-13T22:04:35.534Z,2.47
2024-04-13T22:07:02.984Z,3.00
2024-04-13T22:09:31.577Z,3.17
2024-04-13T22:11:59.271Z,2.90
2024-04-13T22:14:26.641Z,2.80
2024-04-13T22:16:54.106Z,2.97
2024-04-13T22:19:21.771Z,2.77
2024-04-13T22:21:51.138Z,3.10
2024-04-13T22:24:18.729Z,3.10
2024-04-13T22:26:46.239Z,2.87
2024-04-13T22:29:14.170Z,3.53
2024-04-13T22:31:42.020Z,2.97
2024-04-13T22:34:10.762Z,2.90
2024-04-13T22:36:38.508Z,3.37
2024-04-13T22:39:06.634Z,3.43
2024-04-13T22:41:34.014Z,3.53
2024-04-13T22:44:01.541Z,3.57
2024-04-13T22:46:29.341Z,2.97
2024-04-13T22:48:56.996Z,2.97
2024-04-13T22:51:24.658Z,3.20
2024-04-13T22:53:52.593Z,3.57
2024-04-13T22:56:20.041Z,3.10
2024-04-13T22:58:47.525Z,3.33
2024-04-13T23:01:15.550Z,3.27
2024-04-13T23:03:44.977Z,2.90
2024-04-13T23:06:12.446Z,3.30
2024-04-13T23:08:39.943Z,3.50
2024-04-13T23:11:07.399Z,3.43
2024-04-13T23:13:34.945Z,3.87
2024-04-13T23:16:02.619Z,3.60
2024-04-13T23:18:30.692Z,3.50
2024-04-13T23:20:58.193Z,3.50
2024-04-13T23:23:25.647Z,3.37
2024-04-13T23:25:53.099Z,3.50
2024-04-13T23:28:20.640Z,3.67
2024-04-13T23:30:48.276Z,3.93
2024-04-13T23:33:17.364Z,3.70
2024-04-13T23:35:59.188Z,3.70
2024-04-13T23:38:27.508Z,4.03
2024-04-13T23:40:55.680Z,3.50
2024-04-13T23:43:23.136Z,3.87
2024-04-13T23:46:05.195Z,3.87
2024-04-13T23:48:32.955Z,4.00
2024-04-13T23:51:00.731Z,4.00
2024-04-13T23:53:28.146Z,3.30
2024-04-13T23:55:55.615Z,3.27
2024-04-13T23:58:23.424Z,3.43
